Time;durP1;ratioP1;P1;durP2;ratioP2;P2;SDS_P1;SDS_P2;PMS_P1;PMS_P2;Temp;Humidity;BMP_temperature;BMP_pressure;BME280_temperature;BME280_humidity;BME280_pressure;Samples;Min_cycle;Max_cycle;Signal;HPM_P1;HPM_P2
2022/06/27 00:00:12;;;;;;;14.03;9.73;;;18.90;99.90;;;;;;5042200;28;20481;-72
2022/06/27 00:02:39;;;;;;;13.33;9.73;;;18.80;99.90;;;;;;5034700;28;20989;-71
2022/06/27 00:05:08;;;;;;;20.53;12.00;;;18.60;99.90;;;;;;5034738;28;20494;-71
2022/06/27 00:07:35;;;;;;;16.63;11.10;;;18.40;99.90;;;;;;5042310;28;20526;-71
2022/06/27 00:10:03;;;;;;;14.63;9.83;;;18.40;99.90;;;;;;5045740;28;20800;-70
2022/06/27 00:12:30;;;;;;;15.13;12.63;;;18.30;99.90;;;;;;5039095;28;20434;-70
2022/06/27 00:14:57;;;;;;;14.00;11.53;;;18.30;99.90;;;;;;5041341;28;20874;-70
2022/06/27 00:17:24;;;;;;;12.43;11.13;;;18.30;99.90;;;;;;5047732;28;20533;-71
2022/06/27 00:19:51;;;;;;;17.10;11.93;;;18.30;99.90;;;;;;5044846;28;20569;-71
2022/06/27 00:22:20;;;;;;;17.63;12.10;;;18.30;99.90;;;;;;5047043;28;20482;-71
2022/06/27 00:24:49;;;;;;;15.17;11.33;;;18.30;99.90;;;;;;5049857;28;20541;-72
2022/06/27 00:27:16;;;;;;;13.33;11.40;;;18.30;99.90;;;;;;5043375;28;20474;-71
2022/06/27 00:29:43;;;;;;;12.37;8.90;;;18.30;99.90;;;;;;5044565;28;20492;-69
2022/06/27 00:32:10;;;;;;;11.27;8.83;;;18.40;99.90;;;;;;5043166;28;20447;-71
2022/06/27 00:34:38;;;;;;;11.07;8.53;;;18.30;99.90;;;;;;5052289;28;20501;-70
2022/06/27 00:37:05;;;;;;;8.77;7.20;;;18.20;99.90;;;;;;5042955;28;20434;-69
2022/06/27 00:39:34;;;;;;;7.30;6.43;;;18.10;99.90;;;;;;5042659;28;20468;-69
2022/06/27 00:42:01;;;;;;;9.37;7.30;;;18.00;99.90;;;;;;5043842;28;20537;-70
2022/06/27 00:44:32;;;;;;;9.53;7.57;;;18.00;99.90;;;;;;5041753;28;20456;-68
2022/06/27 00:46:59;;;;;;;7.17;6.40;;;17.90;99.90;;;;;;5047561;28;20473;-70
2022/06/27 00:49:26;;;;;;;8.83;8.03;;;17.80;99.90;;;;;;5037709;28;21007;-71
2022/06/27 00:51:53;;;;;;;6.93;6.33;;;17.80;99.90;;;;;;5041341;28;20485;-71
2022/06/27 00:54:21;;;;;;;7.77;6.97;;;17.70;99.90;;;;;;5040705;28;20525;-71
2022/06/27 00:56:50;;;;;;;6.30;5.70;;;17.70;99.90;;;;;;5034396;28;20516;-71
2022/06/27 00:59:18;;;;;;;6.30;5.70;;;17.60;99.90;;;;;;5041287;28;20992;-72
2022/06/27 01:01:45;;;;;;;8.27;6.70;;;17.50;99.90;;;;;;5033631;28;20485;-72
2022/06/27 01:04:13;;;;;;;7.30;6.60;;;17.40;99.90;;;;;;5042620;28;20457;-73
2022/06/27 01:06:40;;;;;;;8.37;7.67;;;17.30;99.90;;;;;;5050398;28;20471;-72
2022/06/27 01:09:06;;;;;;;11.73;8.37;;;17.40;99.90;;;;;;5049299;28;20538;-72
2022/06/27 01:11:34;;;;;;;8.63;7.83;;;17.40;99.90;;;;;;5040859;28;20449;-73
2022/06/27 01:14:03;;;;;;;8.47;7.50;;;17.30;99.90;;;;;;5045908;28;20539;-73
2022/06/27 01:16:30;;;;;;;8.67;7.30;;;17.30;99.90;;;;;;5043751;28;20502;-72
2022/06/27 01:18:57;;;;;;;8.03;7.27;;;17.30;99.90;;;;;;5033841;28;21060;-72
2022/06/27 01:21:26;;;;;;;8.30;7.50;;;17.30;99.90;;;;;;5043624;28;20481;-72
2022/06/27 01:23:55;;;;;;;8.27;7.03;;;17.30;99.90;;;;;;5032918;28;20447;-71
2022/06/27 01:26:22;;;;;;;7.43;6.73;;;17.40;99.90;;;;;;5034995;28;20548;-71
2022/06/27 01:28:50;;;;;;;8.30;7.50;;;17.40;99.90;;;;;;5043562;28;20493;-71
2022/06/27 01:31:18;;;;;;;8.80;7.90;;;17.40;99.90;;;;;;5036566;28;20533;-72
2022/06/27 01:33:45;;;;;;;9.87;7.83;;;17.30;99.90;;;;;;5033735;28;20465;-71
2022/06/27 01:38:57;;;;;;;10.30;7.30;;;17.20;99.90;;;;;;5027764;28;20985;-71
2022/06/27 01:41:24;;;;;;;6.70;6.10;;;17.20;99.90;;;;;;5031619;28;20962;-71
2022/06/27 01:43:51;;;;;;;11.80;8.23;;;17.20;99.90;;;;;;5027107;28;20490;-71
2022/06/27 01:46:18;;;;;;;7.83;7.03;;;17.20;99.90;;;;;;5031532;28;20524;-71
2022/06/27 01:48:45;;;;;;;9.63;7.37;;;17.10;99.90;;;;;;5033066;28;20484;-71
2022/06/27 01:51:13;;;;;;;7.80;7.00;;;17.20;99.90;;;;;;5034289;28;20533;-71
2022/06/27 01:53:41;;;;;;;7.50;6.67;;;17.20;99.90;;;;;;5046385;28;20479;-71
2022/06/27 01:56:09;;;;;;;8.53;6.97;;;17.20;99.90;;;;;;5042387;28;20476;-70
2022/06/27 01:58:37;;;;;;;8.43;7.20;;;17.20;99.90;;;;;;5043655;28;20528;-70
2022/06/27 02:01:09;;;;;;;8.13;7.33;;;17.20;99.90;;;;;;5036343;28;20454;-71
2022/06/27 02:03:36;;;;;;;10.73;7.77;;;17.20;99.90;;;;;;5032012;28;20501;-71
2022/06/27 02:06:03;;;;;;;9.13;7.73;;;17.20;99.90;;;;;;5032297;28;20534;-71
2022/06/27 02:08:30;;;;;;;8.87;7.87;;;17.20;99.90;;;;;;5025671;28;20525;-71
2022/06/27 02:10:57;;;;;;;9.30;8.50;;;17.20;99.90;;;;;;5034671;28;20531;-72
2022/06/27 02:13:28;;;;;;;8.70;7.80;;;17.20;99.90;;;;;;5040804;28;20543;-72
2022/06/27 02:16:06;;;;;;;9.53;8.53;;;17.20;99.90;;;;;;5039340;28;20527;-72
2022/06/27 02:18:34;;;;;;;10.23;7.63;;;17.20;99.90;;;;;;5042193;28;20454;-72
2022/06/27 02:21:01;;;;;;;8.27;7.47;;;17.30;99.90;;;;;;5043940;28;20870;-71
2022/06/27 02:23:28;;;;;;;9.07;7.40;;;17.30;99.90;;;;;;5042591;28;20533;-72
2022/06/27 02:25:57;;;;;;;9.07;8.10;;;17.40;99.90;;;;;;5040866;28;20916;-71
2022/06/27 02:28:28;;;;;;;8.03;7.27;;;17.40;99.90;;;;;;5042572;28;20456;-72
2022/06/27 02:30:56;;;;;;;10.00;8.20;;;17.40;99.90;;;;;;5039186;28;20441;-71
2022/06/27 02:33:23;;;;;;;7.60;6.53;;;17.40;99.90;;;;;;5038784;28;20448;-71
2022/06/27 02:35:52;;;;;;;10.50;8.80;;;17.40;99.90;;;;;;5027171;28;20474;-71
2022/06/27 02:38:21;;;;;;;9.10;7.60;;;17.40;99.90;;;;;;5034173;28;20450;-71
2022/06/27 02:40:48;;;;;;;7.53;6.90;;;17.30;99.90;;;;;;5042983;28;20550;-71
2022/06/27 02:43:16;;;;;;;9.50;8.50;;;17.40;99.90;;;;;;5040678;28;20708;-73
2022/06/27 02:45:46;;;;;;;8.20;7.40;;;17.40;99.90;;;;;;5021942;28;20488;-73
2022/06/27 02:48:18;;;;;;;9.27;7.73;;;17.40;99.90;;;;;;5023666;28;20548;-72
2022/06/27 02:50:50;;;;;;;10.97;9.97;;;17.40;99.90;;;;;;5034999;28;20523;-72
2022/06/27 02:53:23;;;;;;;9.17;8.23;;;17.50;99.90;;;;;;5038312;28;20490;-72
2022/06/27 02:55:53;;;;;;;8.50;7.80;;;17.50;99.90;;;;;;5038245;28;20544;-73
2022/06/27 02:58:24;;;;;;;12.33;7.80;;;17.60;99.90;;;;;;5032584;28;20857;-74
2022/06/27 03:00:55;;;;;;;12.20;8.80;;;17.50;99.90;;;;;;5035552;28;20490;-74
2022/06/27 03:03:25;;;;;;;12.13;9.50;;;17.50;99.90;;;;;;5029669;28;20524;-73
2022/06/27 03:06:00;;;;;;;13.83;9.40;;;17.50;99.90;;;;;;5032649;28;20474;-73
2022/06/27 03:08:37;;;;;;;11.23;10.00;;;17.50;99.90;;;;;;5032257;28;20478;-74
2022/06/27 03:11:05;;;;;;;12.30;10.90;;;17.50;99.90;;;;;;5035554;28;20440;-72
2022/06/27 03:13:32;;;;;;;12.80;11.03;;;17.50;99.90;;;;;;5036970;28;20464;-74
2022/06/27 03:16:01;;;;;;;11.80;10.50;;;17.50;99.90;;;;;;5029569;28;20520;-72
2022/06/27 03:18:29;;;;;;;11.43;9.93;;;17.40;99.90;;;;;;5023814;28;20528;-73
2022/06/27 03:20:56;;;;;;;11.43;10.27;;;17.40;99.90;;;;;;5030231;28;20533;-73
2022/06/27 03:23:24;;;;;;;12.57;10.90;;;17.40;99.90;;;;;;5022366;28;20952;-73
2022/06/27 03:25:51;;;;;;;11.00;9.90;;;17.40;99.90;;;;;;5025741;28;20470;-73
2022/06/27 03:28:18;;;;;;;13.50;10.90;;;17.40;99.90;;;;;;5029942;28;20894;-72
2022/06/27 03:30:45;;;;;;;13.03;11.57;;;17.40;99.90;;;;;;5019243;28;20530;-73
2022/06/27 03:33:14;;;;;;;15.20;12.80;;;17.40;99.90;;;;;;5023301;28;20537;-73
2022/06/27 03:35:41;;;;;;;14.97;11.63;;;17.40;99.90;;;;;;5044370;28;20476;-73
2022/06/27 03:38:08;;;;;;;13.83;11.77;;;17.30;99.90;;;;;;5035649;28;20551;-73
2022/06/27 03:40:35;;;;;;;11.27;10.17;;;17.30;99.90;;;;;;5050122;28;20500;-73
2022/06/27 03:43:03;;;;;;;12.50;10.07;;;17.30;99.90;;;;;;5042168;28;20798;-72
2022/06/27 03:45:31;;;;;;;10.77;9.77;;;17.30;99.90;;;;;;5043341;28;20554;-72
2022/06/27 03:48:00;;;;;;;11.00;9.90;;;17.30;99.90;;;;;;5048305;28;20449;-72
2022/06/27 03:50:27;;;;;;;13.03;10.90;;;17.30;99.90;;;;;;5038945;28;20470;-72
2022/06/27 03:52:55;;;;;;;9.63;8.77;;;17.30;99.90;;;;;;5045790;28;20531;-72
2022/06/27 03:55:23;;;;;;;11.27;10.23;;;17.30;99.90;;;;;;5048585;28;20476;-72
2022/06/27 03:57:52;;;;;;;14.40;9.40;;;17.20;99.90;;;;;;5048158;28;20449;-72
2022/06/27 04:00:21;;;;;;;9.90;8.90;;;17.20;99.90;;;;;;5039643;28;20510;-72
2022/06/27 04:02:48;;;;;;;9.47;8.57;;;17.10;99.90;;;;;;5038987;28;20470;-72
2022/06/27 04:05:15;;;;;;;10.00;9.10;;;17.10;99.90;;;;;;5037146;28;21081;-71
2022/06/27 04:07:43;;;;;;;9.83;8.83;;;17.10;99.90;;;;;;5044190;28;20477;-71
2022/06/27 04:10:11;;;;;;;10.67;9.47;;;17.10;99.90;;;;;;5051914;28;20448;-71
2022/06/27 04:12:40;;;;;;;18.23;10.40;;;17.10;99.90;;;;;;5048874;28;20504;-71
2022/06/27 04:15:09;;;;;;;11.47;10.27;;;17.00;99.90;;;;;;5054104;28;20256;-70
2022/06/27 04:17:37;;;;;;;11.40;8.83;;;17.00;99.90;;;;;;5041093;28;20463;-71
2022/06/27 04:20:04;;;;;;;9.00;8.10;;;17.10;99.90;;;;;;5034735;28;20484;-72
2022/06/27 04:22:31;;;;;;;9.20;8.40;;;17.10;99.90;;;;;;5050054;28;20814;-72
2022/06/27 04:25:00;;;;;;;11.17;8.77;;;17.00;99.90;;;;;;5038047;28;20915;-71
2022/06/27 04:27:28;;;;;;;8.00;7.20;;;17.00;99.90;;;;;;5051203;28;20487;-72
2022/06/27 04:29:56;;;;;;;10.02;7.78;;;17.10;99.90;;;;;;5042962;28;20488;-71
2022/06/27 04:32:24;;;;;;;8.07;7.27;;;17.10;99.90;;;;;;5034688;28;20213;-71
2022/06/27 04:34:53;;;;;;;9.30;7.70;;;17.10;99.90;;;;;;5036523;28;20488;-72
2022/06/27 04:37:20;;;;;;;9.27;6.73;;;17.00;99.90;;;;;;5034877;28;20449;-71
2022/06/27 04:39:50;;;;;;;10.00;7.70;;;17.10;99.90;;;;;;5044192;28;20513;-70
2022/06/27 04:42:19;;;;;;;18.53;8.77;;;17.10;99.90;;;;;;5056439;28;20529;-70
2022/06/27 04:44:46;;;;;;;13.13;7.30;;;17.00;99.90;;;;;;5055720;28;20448;-70
2022/06/27 04:47:13;;;;;;;18.60;8.83;;;17.10;99.90;;;;;;5047051;28;20455;-70
2022/06/27 04:49:42;;;;;;;12.93;7.93;;;17.00;99.90;;;;;;5035346;28;20960;-70
2022/06/27 04:52:12;;;;;;;11.10;7.20;;;17.10;99.90;;;;;;5040347;28;20928;-71
2022/06/27 04:54:39;;;;;;;7.80;6.93;;;17.00;99.90;;;;;;5044683;28;20507;-71
2022/06/27 04:57:08;;;;;;;11.10;7.80;;;17.10;99.90;;;;;;5039378;28;20952;-71
2022/06/27 04:59:37;;;;;;;6.70;5.73;;;17.10;99.90;;;;;;5040516;28;20453;-71
2022/06/27 05:02:14;;;;;;;5.85;5.32;;;17.10;99.90;;;;;;5032654;28;20911;-71
2022/06/27 05:04:41;;;;;;;5.80;5.20;;;17.10;99.90;;;;;;5033750;28;20203;-71
2022/06/27 05:07:09;;;;;;;7.87;5.83;;;17.10;99.90;;;;;;5041912;28;20536;-71
2022/06/27 05:09:36;;;;;;;6.60;6.10;;;17.10;99.90;;;;;;5040823;28;21714;-71
2022/06/27 05:12:05;;;;;;;5.73;5.20;;;17.10;99.90;;;;;;5030943;28;20491;-77
2022/06/27 05:14:32;;;;;;;5.60;5.10;;;17.10;99.90;;;;;;5038053;28;20437;-79
2022/06/27 05:17:01;;;;;;;5.90;4.72;;;17.10;99.90;;;;;;5047170;28;20587;-78
2022/06/27 05:19:28;;;;;;;5.73;4.90;;;17.20;99.90;;;;;;5035590;28;20221;-77
2022/06/27 05:21:57;;;;;;;10.63;4.03;;;17.30;99.90;;;;;;5035601;28;20890;-79
2022/06/27 05:24:24;;;;;;;5.32;4.03;;;17.30;99.90;;;;;;5040261;28;20842;-77
2022/06/27 05:26:53;;;;;;;5.75;4.20;;;17.40;99.90;;;;;;5039574;28;20232;-78
2022/06/27 05:29:20;;;;;;;6.20;4.22;;;17.40;99.90;;;;;;5041976;28;20216;-76
2022/06/27 05:31:48;;;;;;;5.10;4.10;;;17.40;99.90;;;;;;5032836;28;20220;-75
2022/06/27 05:34:16;;;;;;;5.23;3.93;;;17.40;99.90;;;;;;5035259;28;20489;-78
2022/06/27 05:36:43;;;;;;;5.30;4.80;;;17.40;99.90;;;;;;5032949;28;20874;-79
2022/06/27 05:39:11;;;;;;;7.23;4.10;;;17.50;99.90;;;;;;5033778;28;20862;-77
2022/06/27 05:41:41;;;;;;;5.90;3.20;;;17.50;99.90;;;;;;5034744;28;20900;-76
2022/06/27 05:44:08;;;;;;;3.40;3.10;;;17.60;99.90;;;;;;5035208;28;20454;-76
2022/06/27 05:46:37;;;;;;;3.83;3.43;;;17.50;99.90;;;;;;5038238;28;20519;-77
2022/06/27 05:49:04;;;;;;;6.30;4.10;;;17.60;99.90;;;;;;5033977;28;20533;-79
2022/06/27 05:51:35;;;;;;;3.37;3.00;;;17.50;99.90;;;;;;5027213;28;20449;-80
2022/06/27 05:54:08;;;;;;;4.40;4.00;;;17.60;99.90;;;;;;5038746;28;20458;-80
2022/06/27 05:56:36;;;;;;;10.07;4.57;;;17.70;99.90;;;;;;5023354;28;20480;-78
2022/06/27 05:59:06;;;;;;;9.33;5.30;;;17.70;99.90;;;;;;5028984;28;20481;-79
2022/06/27 06:01:36;;;;;;;5.93;3.70;;;17.70;99.90;;;;;;5024364;28;20466;-78
2022/06/27 06:04:05;;;;;;;9.02;4.95;;;17.80;99.90;;;;;;5032793;28;20207;-81
2022/06/27 06:06:34;;;;;;;5.00;3.13;;;17.80;99.90;;;;;;5033916;28;20238;-78
2022/06/27 06:09:01;;;;;;;5.30;3.30;;;17.80;99.90;;;;;;5030665;28;20469;-81
2022/06/27 06:11:28;;;;;;;13.00;4.20;;;17.80;99.90;;;;;;5029032;28;20494;-80
2022/06/27 06:14:02;;;;;;;4.60;3.30;;;17.80;99.90;;;;;;5030517;28;20467;-78
2022/06/27 06:16:29;;;;;;;9.20;3.80;;;17.90;99.90;;;;;;5032239;28;20487;-82
2022/06/27 06:19:03;;;;;;;6.10;4.27;;;17.90;99.90;;;;;;5023183;28;20515;-83
2022/06/27 06:21:30;;;;;;;6.90;4.07;;;18.00;99.90;;;;;;5045676;28;20481;-82
2022/06/27 06:23:59;;;;;;;3.30;3.00;;;18.00;99.90;;;;;;5035727;28;20444;-77
2022/06/27 06:26:26;;;;;;;5.73;4.50;;;18.00;99.90;;;;;;5026479;28;20478;-70
2022/06/27 06:28:53;;;;;;;8.87;3.90;;;18.00;99.90;;;;;;5034839;28;20458;-76
2022/06/27 06:31:23;;;;;;;3.97;3.57;;;18.00;99.90;;;;;;5028753;28;20443;-75
2022/06/27 06:33:55;;;;;;;4.37;3.23;;;17.90;99.90;;;;;;5032200;28;20454;-76
2022/06/27 06:36:22;;;;;;;9.07;3.70;;;17.90;99.90;;;;;;5037679;28;20851;-76
2022/06/27 06:38:57;;;;;;;3.67;3.20;;;18.00;99.90;;;;;;5034861;28;20450;-77
2022/06/27 06:41:27;;;;;;;5.67;4.03;;;18.00;99.90;;;;;;5039050;28;20495;-77
2022/06/27 06:43:54;;;;;;;4.70;3.60;;;18.00;99.90;;;;;;5048398;28;20442;-78
2022/06/27 06:46:28;;;;;;;5.80;3.60;;;18.00;99.90;;;;;;5048272;28;20792;-78
2022/06/27 06:49:02;;;;;;;6.67;3.63;;;18.10;99.90;;;;;;5027589;28;20459;-77
2022/06/27 06:51:31;;;;;;;6.63;3.43;;;18.10;99.90;;;;;;5028201;28;20485;-74
2022/06/27 06:53:58;;;;;;;4.87;3.40;;;18.20;99.90;;;;;;5034469;28;20477;-76
2022/06/27 06:56:28;;;;;;;5.03;4.53;;;18.30;99.90;;;;;;5041814;28;20584;-77
2022/06/27 06:58:56;;;;;;;9.10;3.23;;;18.40;99.90;;;;;;5027271;28;20456;-78
2022/06/27 07:01:23;;;;;;;4.40;3.27;;;18.60;99.90;;;;;;5033615;28;20483;-78
2022/06/27 07:03:50;;;;;;;9.40;2.83;;;18.90;99.90;;;;;;5030862;28;20455;-76
2022/06/27 07:06:21;;;;;;;4.90;3.40;;;19.20;99.90;;;;;;5034724;28;20531;-78
2022/06/27 07:08:49;;;;;;;10.60;3.53;;;19.40;99.90;;;;;;5042073;28;20450;-79
2022/06/27 07:11:16;;;;;;;6.97;3.20;;;19.60;99.90;;;;;;5044454;28;20451;-77
2022/06/27 07:13:46;;;;;;;2.33;2.13;;;19.90;99.90;;;;;;5037284;28;20443;-78
2022/06/27 07:16:14;;;;;;;7.13;2.60;;;20.20;99.90;;;;;;5043058;28;20459;-79
2022/06/27 07:18:41;;;;;;;5.93;2.63;;;20.50;99.90;;;;;;5040382;28;20456;-77
2022/06/27 07:21:08;;;;;;;4.63;2.60;;;20.80;99.90;;;;;;5048457;28;20474;-77
2022/06/27 07:23:35;;;;;;;2.73;2.40;;;21.10;99.90;;;;;;5039814;28;20465;-79
2022/06/27 07:26:02;;;;;;;3.30;2.73;;;21.20;99.90;;;;;;5027036;28;20473;-77
2022/06/27 07:28:29;;;;;;;2.43;2.13;;;21.20;99.90;;;;;;5043657;28;20474;-76
2022/06/27 07:30:59;;;;;;;4.67;2.67;;;21.20;99.90;;;;;;5046162;28;20453;-78
2022/06/27 07:33:26;;;;;;;8.97;3.30;;;21.20;99.90;;;;;;5045994;28;20441;-75
2022/06/27 07:35:53;;;;;;;3.80;2.50;;;21.30;99.90;;;;;;5058098;28;20463;-78
2022/06/27 07:38:21;;;;;;;3.03;2.73;;;21.20;99.90;;;;;;5042816;28;20476;-78
2022/06/27 07:40:48;;;;;;;6.07;2.07;;;21.10;99.90;;;;;;5036422;28;21021;-77
2022/06/27 07:43:15;;;;;;;2.10;1.90;;;21.10;99.90;;;;;;5044932;28;20466;-75
2022/06/27 07:45:44;;;;;;;2.37;1.90;;;21.20;99.90;;;;;;5048041;28;20474;-76
2022/06/27 07:48:13;;;;;;;4.80;4.30;;;21.20;99.90;;;;;;5040573;28;20987;-76
2022/06/27 07:50:40;;;;;;;8.30;5.20;;;21.30;99.90;;;;;;5042597;28;20451;-78
2022/06/27 07:53:14;;;;;;;14.50;9.50;;;21.40;99.90;;;;;;5039041;28;20432;-75
2022/06/27 07:55:43;;;;;;;5.53;3.73;;;21.30;99.90;;;;;;5048962;28;20968;-77
2022/06/27 07:58:16;;;;;;;6.93;5.77;;;21.40;99.90;;;;;;5050953;28;20479;-77
2022/06/27 08:00:44;;;;;;;4.00;2.30;;;21.30;99.90;;;;;;5039263;28;20593;-77
2022/06/27 08:05:58;;;;;;;5.27;4.10;;;21.50;99.90;;;;;;5033265;28;20464;-77
2022/06/27 08:08:26;;;;;;;4.53;3.43;;;21.50;99.90;;;;;;5045937;28;20450;-77
2022/06/27 08:10:55;;;;;;;8.73;4.93;;;21.60;99.90;;;;;;5038207;28;20807;-76
2022/06/27 08:13:22;;;;;;;4.00;3.37;;;21.60;99.90;;;;;;5037886;28;20545;-76
2022/06/27 08:15:50;;;;;;;4.90;3.90;;;21.60;99.90;;;;;;5042538;28;20506;-77
2022/06/27 08:18:19;;;;;;;5.20;2.53;;;21.70;99.90;;;;;;5038639;28;20450;-78
2022/06/27 08:20:47;;;;;;;7.20;4.20;;;21.80;99.90;;;;;;5050155;28;20577;-78
2022/06/27 08:23:15;;;;;;;3.23;2.93;;;21.70;99.90;;;;;;5041410;28;20457;-77
2022/06/27 08:25:43;;;;;;;5.00;4.33;;;21.60;99.90;;;;;;5043373;28;20483;-78
2022/06/27 08:28:10;;;;;;;4.40;4.00;;;21.60;99.90;;;;;;5038849;28;20995;-80
2022/06/27 08:30:38;;;;;;;6.43;4.70;;;21.60;99.90;;;;;;5042884;28;20541;-79
2022/06/27 08:33:05;;;;;;;9.20;4.97;;;21.60;99.90;;;;;;5038515;28;20478;-77
2022/06/27 08:35:35;;;;;;;4.73;4.30;;;21.80;99.90;;;;;;5045487;28;20466;-78
2022/06/27 08:38:02;;;;;;;4.50;3.30;;;21.80;99.90;;;;;;5032788;28;20460;-78
2022/06/27 08:40:30;;;;;;;5.03;3.00;;;21.90;99.90;;;;;;5048337;28;20422;-77
2022/06/27 08:42:58;;;;;;;5.20;3.03;;;22.00;99.90;;;;;;5055234;28;20447;-79
2022/06/27 08:45:29;;;;;;;5.50;3.50;;;22.00;99.90;;;;;;5045963;28;20486;-78
2022/06/27 08:48:04;;;;;;;4.03;3.00;;;21.80;99.90;;;;;;5041667;28;20444;-79
2022/06/27 08:50:34;;;;;;;8.97;3.13;;;21.80;99.90;;;;;;5037857;28;20455;-78
2022/06/27 08:53:02;;;;;;;3.90;3.60;;;21.90;99.90;;;;;;5033709;28;20449;-77
2022/06/27 08:55:30;;;;;;;4.97;2.33;;;22.00;99.90;;;;;;5039959;28;20498;-78
2022/06/27 08:58:06;;;;;;;3.87;3.57;;;22.20;99.90;;;;;;5033797;28;20450;-79
2022/06/27 09:00:36;;;;;;;5.73;3.13;;;22.40;99.90;;;;;;5034114;28;20454;-78
2022/06/27 09:03:04;;;;;;;3.70;3.10;;;22.80;99.90;;;;;;5034577;28;20443;-78
2022/06/27 09:05:33;;;;;;;4.83;3.70;;;23.30;99.90;;;;;;5029062;28;20533;-77
2022/06/27 09:08:02;;;;;;;4.30;4.00;;;23.80;99.90;;;;;;5035318;28;20439;-77
2022/06/27 09:10:32;;;;;;;3.63;2.90;;;24.70;99.90;;;;;;5041140;28;20986;-77
2022/06/27 09:13:03;;;;;;;3.77;2.83;;;25.10;99.90;;;;;;5038955;28;20451;-77
2022/06/27 09:15:50;;;;;;;3.70;3.40;;;25.30;99.90;;;;;;5031981;28;20800;-78
2022/06/27 09:18:19;;;;;;;5.27;3.63;;;25.30;99.90;;;;;;5031781;28;20945;-80
2022/06/27 09:20:54;;;;;;;5.07;4.10;;;25.40;99.90;;;;;;5033488;28;20464;-78
2022/06/27 09:23:43;;;;;;;3.90;3.50;;;25.50;99.90;;;;;;5028190;28;20443;-77
2022/06/27 09:26:15;;;;;;;5.37;4.40;;;25.30;99.90;;;;;;5048860;28;20482;-78
2022/06/27 09:28:50;;;;;;;4.20;3.80;;;25.10;99.90;;;;;;5032937;28;20513;-77
2022/06/27 09:31:32;;;;;;;6.80;3.97;;;25.20;99.90;;;;;;5025781;28;20445;-77
2022/06/27 09:34:14;;;;;;;7.60;4.67;;;25.20;99.90;;;;;;5041939;28;20473;-79
2022/06/27 09:36:44;;;;;;;4.53;4.10;;;25.10;99.90;;;;;;5024474;28;20553;-78
2022/06/27 09:39:25;;;;;;;3.70;3.40;;;24.80;99.90;;;;;;5038901;28;20500;-78
2022/06/27 09:42:01;;;;;;;5.27;4.63;;;24.90;99.90;;;;;;5030803;28;20484;-78
2022/06/27 09:44:31;;;;;;;6.43;4.90;;;24.20;99.90;;;;;;5029058;28;20432;-78
2022/06/27 09:47:08;;;;;;;6.23;4.53;;;23.90;99.90;;;;;;5026498;28;20467;-78
2022/06/27 09:49:38;;;;;;;5.40;4.87;;;23.50;99.90;;;;;;5025875;28;20583;-77
2022/06/27 09:52:09;;;;;;;5.63;5.03;;;23.20;99.90;;;;;;5027836;28;20502;-80
2022/06/27 09:54:39;;;;;;;5.77;5.27;;;22.70;99.90;;;;;;5038114;28;20475;-76
2022/06/27 09:57:07;;;;;;;6.63;6.03;;;22.50;99.90;;;;;;5037012;28;20442;-79
2022/06/27 09:59:35;;;;;;;5.83;5.20;;;22.40;99.90;;;;;;5024427;28;20499;-77
2022/06/27 10:02:02;;;;;;;6.07;5.47;;;22.60;99.90;;;;;;5042404;28;20527;-77
2022/06/27 10:04:30;;;;;;;6.07;5.47;;;22.90;99.90;;;;;;5041415;28;20473;-77
2022/06/27 10:06:59;;;;;;;6.00;5.40;;;23.10;99.90;;;;;;5046266;28;20473;-78
2022/06/27 10:09:29;;;;;;;7.30;5.40;;;23.30;99.90;;;;;;5041478;28;20448;-80
2022/06/27 10:12:22;;;;;;;9.37;8.43;;;23.30;99.90;;;;;;5036318;28;20447;-78
2022/06/27 10:15:23;;;;;;;16.50;9.20;;;23.50;99.90;;;;;;5031446;28;20462;-79
2022/06/27 10:17:53;;;;;;;9.03;6.80;;;23.50;99.90;;;;;;5038619;28;20471;-77
2022/06/27 10:20:21;;;;;;;16.97;13.07;;;23.40;99.90;;;;;;5045945;28;20435;-77
2022/06/27 10:23:09;;;;;;;16.73;13.30;;;23.30;99.90;;;;;;5038867;28;20537;-77
2022/06/27 10:25:38;;;;;;;9.30;7.63;;;23.20;99.90;;;;;;5023782;28;20471;-79
2022/06/27 10:28:23;;;;;;;6.30;5.70;;;23.20;99.90;;;;;;5029895;28;20444;-77
2022/06/27 10:30:52;;;;;;;8.10;6.90;;;22.90;99.90;;;;;;5036646;28;20964;-79
2022/06/27 10:33:37;;;;;;;7.80;5.23;;;22.90;99.90;;;;;;5031019;28;20443;-80
2022/06/27 10:36:10;;;;;;;7.10;6.50;;;22.90;99.90;;;;;;5040783;28;20477;-77
2022/06/27 10:38:46;;;;;;;8.50;7.60;;;22.90;99.90;;;;;;5040894;28;20466;-79
2022/06/27 10:41:41;;;;;;;11.20;7.00;;;22.90;99.90;;;;;;5044372;28;20438;-77
2022/06/27 10:44:32;;;;;;;11.27;6.70;;;22.90;99.90;;;;;;5048113;28;20470;-76
2022/06/27 10:46:59;;;;;;;10.03;7.50;;;23.10;99.90;;;;;;5044854;28;20463;-78
2022/06/27 10:49:28;;;;;;;6.80;6.17;;;23.20;99.90;;;;;;5031920;28;20471;-80
2022/06/27 10:52:32;;;;;;;6.90;6.30;;;23.20;99.90;;;;;;5031242;28;20449;-77
2022/06/27 10:54:59;;;;;;;6.43;5.70;;;23.70;99.90;;;;;;5035037;28;20470;-78
2022/06/27 10:57:46;;;;;;;7.00;6.20;;;24.60;99.90;;;;;;5038851;28;20470;-78
2022/06/27 11:00:48;;;;;;;9.10;6.43;;;24.80;99.90;;;;;;5032902;28;20769;-78
2022/06/27 11:03:24;;;;;;;9.70;8.80;;;24.90;99.90;;;;;;5029735;28;20484;-79
2022/06/27 11:06:03;;;;;;;11.43;9.47;;;24.90;99.90;;;;;;5031196;28;20497;-79
2022/06/27 11:08:33;;;;;;;14.03;9.87;;;24.90;99.90;;;;;;5037242;28;20450;-79
2022/06/27 11:11:01;;;;;;;16.73;13.87;;;25.10;99.90;;;;;;5031981;28;20443;-79
2022/06/27 11:13:41;;;;;;;14.53;13.07;;;25.30;99.90;;;;;;5031448;28;21019;-79
2022/06/27 11:16:11;;;;;;;16.50;14.37;;;25.80;99.90;;;;;;5038349;28;20553;-78
2022/06/27 11:18:47;;;;;;;15.00;13.70;;;26.10;99.90;;;;;;5025355;28;20478;-80
2022/06/27 11:21:17;;;;;;;14.87;13.30;;;26.00;99.80;;;;;;5030714;28;20918;-80
2022/06/27 11:23:55;;;;;;;14.57;11.90;;;25.70;99.90;;;;;;5030649;28;20470;-78
2022/06/27 11:26:25;;;;;;;15.17;13.67;;;25.90;99.90;;;;;;5032107;28;20462;-78
2022/06/27 11:34:24;;;;;;;14.90;13.27;;;25.50;99.90;;;;;;5042487;28;20441;-78
2022/06/27 11:36:52;;;;;;;15.20;13.80;;;25.50;99.90;;;;;;5030458;28;20481;-77
2022/06/27 11:39:24;;;;;;;16.20;14.80;;;25.20;99.90;;;;;;5028191;28;20478;-78
2022/06/27 11:41:56;;;;;;;18.00;16.23;;;25.10;99.90;;;;;;5034491;28;20521;-77
2022/06/27 11:44:25;;;;;;;21.13;19.23;;;24.80;99.90;;;;;;5033482;28;20796;-77
2022/06/27 11:46:53;;;;;;;21.03;19.00;;;24.70;99.90;;;;;;5039857;28;20499;-78
2022/06/27 11:49:30;;;;;;;22.13;19.77;;;24.80;99.90;;;;;;5053813;28;20524;-78
2022/06/27 11:52:00;;;;;;;22.87;20.70;;;24.90;99.90;;;;;;5045521;28;20485;-78
2022/06/27 11:54:36;;;;;;;23.87;21.47;;;25.10;99.90;;;;;;5041285;28;20525;-78
2022/06/27 11:57:04;;;;;;;27.23;24.63;;;25.20;99.90;;;;;;5046085;28;20555;-79
2022/06/27 11:59:33;;;;;;;28.37;25.77;;;25.20;99.90;;;;;;5029684;28;20458;-80
2022/06/27 12:02:02;;;;;;;27.77;25.27;;;25.00;99.90;;;;;;5033237;28;20521;-79
2022/06/27 12:04:32;;;;;;;25.87;23.27;;;25.30;99.90;;;;;;5040863;28;20450;-79
2022/06/27 12:07:06;;;;;;;28.43;25.47;;;25.60;99.90;;;;;;5035794;28;20468;-80
2022/06/27 12:09:49;;;;;;;27.73;24.07;;;25.70;99.90;;;;;;5017866;28;20497;-77
2022/06/27 12:12:19;;;;;;;24.40;21.80;;;25.40;99.90;;;;;;5030026;28;20476;-78
2022/06/27 12:14:49;;;;;;;21.80;19.60;;;25.00;99.90;;;;;;5036441;28;20830;-77
2022/06/27 12:17:17;;;;;;;18.63;16.90;;;24.60;99.90;;;;;;5037772;28;20921;-77
2022/06/27 12:19:45;;;;;;;19.47;17.30;;;24.30;99.90;;;;;;5034159;28;20434;-78
2022/06/27 12:22:18;;;;;;;18.47;16.67;;;24.20;99.90;;;;;;5027578;28;20482;-78
2022/06/27 12:24:45;;;;;;;14.07;12.67;;;23.80;99.90;;;;;;5032479;28;20937;-78
2022/06/27 12:27:12;;;;;;;14.20;12.87;;;23.60;99.90;;;;;;5032171;28;20470;-79
2022/06/27 12:29:39;;;;;;;16.47;13.43;;;23.50;99.90;;;;;;5023716;28;20459;-77
2022/06/27 12:32:08;;;;;;;13.00;11.80;;;23.30;99.90;;;;;;5033108;28;20446;-78
2022/06/27 12:34:35;;;;;;;14.20;12.80;;;23.10;99.90;;;;;;5034672;28;20440;-79
2022/06/27 12:37:03;;;;;;;12.50;11.40;;;22.90;99.90;;;;;;5037395;28;20470;-80
2022/06/27 12:39:30;;;;;;;13.30;12.03;;;22.90;99.90;;;;;;5036692;28;20959;-79
2022/06/27 12:41:57;;;;;;;14.10;12.63;;;22.80;99.90;;;;;;5040699;28;20486;-78
2022/06/27 12:44:25;;;;;;;13.03;11.33;;;22.70;99.90;;;;;;5038305;28;20488;-79
2022/06/27 12:46:53;;;;;;;12.50;11.20;;;22.60;99.90;;;;;;5045215;28;20570;-80
2022/06/27 12:49:26;;;;;;;9.73;8.50;;;22.50;99.90;;;;;;5037756;28;20447;-79
2022/06/27 12:51:53;;;;;;;11.27;8.83;;;22.40;99.90;;;;;;5041141;28;20525;-78
2022/06/27 12:54:20;;;;;;;11.00;9.50;;;22.30;99.90;;;;;;5046056;28;20447;-76
2022/06/27 12:56:47;;;;;;;9.93;8.57;;;22.10;99.90;;;;;;5041620;28;20501;-77
2022/06/27 12:59:22;;;;;;;10.77;8.97;;;21.90;99.90;;;;;;5053120;28;20446;-79
2022/06/27 13:01:50;;;;;;;12.90;11.53;;;21.70;99.90;;;;;;5038908;28;20450;-77
2022/06/27 13:04:17;;;;;;;12.57;11.20;;;21.60;99.90;;;;;;5023451;28;20461;-78